• Join FlightAware (Why Join?)
  • Login
  • US Flag 
12:08PM EST


 

Airport Tracker/Info


-or-


 

Live Flight TrackerFlight Track Log ✈ DAL268 ✈ 13-Oct-2013 ✈ KSFO - KJFK

Flight Track Log - Related Links

Times and Time Zones

All times are in EDT time to prevent confusion due to time zone crossing. See the DAL268 flight status page for this flight to view local times or setup timezone preferences in your user account.

Time Position Orientation Groundspeed Altitude Reporting Facility
EDT Latitude Longitude Course Direction KTS MPH feet Rate Location/Type
02:43PM 37.6317 -122.3600 33° Northeast 148 170 1,200  Level FlightAware ADS-B
02:43PM 37.6360 -122.3530 52° Northeast 151 174 1,600 1,860 Climbing FlightAware ADS-B
02:43PM 37.6396 -122.3470 53° Northeast 159 183 1,800 1,320 Climbing FlightAware ADS-B
02:44PM 37.6470 -122.3360 50° Northeast 181 208 2,100 1,200 Climbing FlightAware ADS-B
02:44PM 37.6563 -122.3230 48° Northeast 203 234 2,400 1,500 Climbing FlightAware ADS-B
02:44PM 37.6663 -122.3090 48° Northeast 221 254 2,900 1,980 Climbing FlightAware ADS-B
02:44PM 37.6767 -122.2930 51° Northeast 239 275 3,400 2,280 Climbing FlightAware ADS-B
02:45PM 37.6885 -122.2760 49° Northeast 250 288 4,100 2,880 Climbing FlightAware ADS-B
02:45PM 37.7047 -122.2520 50° Northeast 255 293 5,200 2,820 Climbing FlightAware ADS-B
02:45PM 37.7181 -122.2330 48° Northeast 264 304 5,900 3,000 Climbing FlightAware ADS-B
02:46PM 37.7341 -122.2080 51° Northeast 264 304 7,100 3,540 Climbing FlightAware ADS-B
02:46PM 37.7382 -122.2000 57° Northeast 265 305 7,500 3,600 Climbing FlightAware ADS-B
02:46PM 37.7407 -122.1940 62° Northeast 267 307 7,700 2,820 Climbing FlightAware ADS-B
02:46PM 37.7493 -122.1700 66° East 274 315 8,500 2,760 Climbing FlightAware ADS-B
02:46PM 37.7549 -122.1540 66° East 278 320 9,000 2,760 Climbing FlightAware ADS-B
02:47PM 37.7688 -122.1070 69° East 287 330 10,400 2,220 Climbing FlightAware ADS-B
02:47PM 37.7818 -122.0670 68° East 311 358 11,100 1,320 Climbing FlightAware ADS-B
02:48PM 37.7956 -122.0170 71° East 343 395 11,600 1,260 Climbing FlightAware ADS-B
02:48PM 37.8115 -121.9570 71° East 371 427 12,300 1,620 Climbing FlightAware ADS-B
02:49PM 37.8286 -121.8930 71° East 385 443 13,300 2,160 Climbing FlightAware ADS-B
02:49PM 37.8466 -121.8280 71° East 391 450 14,500 2,280 Climbing FlightAware ADS-B
02:50PM 37.8660 -121.7590 70° East 394 453 15,700 2,400 Climbing FlightAware ADS-B
02:50PM 37.8843 -121.6940 70° East 394 453 17,000 1,920 Climbing FlightAware ADS-B
02:51PM 37.9045 -121.6230 70° East 413 475 17,700 1,500 Climbing FlightAware ADS-B
02:51PM 37.9242 -121.5520 71° East 418 481 18,600 1,800 Climbing FlightAware ADS-B
02:52PM 37.9447 -121.4780 71° East 425 489 19,600 1,980 Climbing FlightAware ADS-B
02:52PM 37.9651 -121.4040 71° East 423 487 20,700 1,740 Climbing FlightAware ADS-B
02:53PM 37.9855 -121.3300 71° East 432 497 21,500 1,440 Climbing FlightAware ADS-B
02:53PM 38.0100 -121.2410 71° East 439 505 22,400 1,380 Climbing FlightAware
02:54PM 38.0162 -121.2180 71° East 440 506 22,600 1,320 Climbing FlightAware ADS-B
02:54PM 38.0491 -121.0970 71° East 449 517 23,700 1,380 Climbing FlightAware ADS-B
02:55PM 38.0810 -120.9780 71° East 459 528 24,900 1,440 Climbing FlightAware
02:56PM 38.1030 -120.8890 73° East 463 533 25,700 1,380 Climbing FlightAware
02:56PM 38.1240 -120.7980 74° East 465 535 26,500 1,320 Climbing FlightAware
02:57PM 38.1470 -120.7060 72° East 467 537 27,300 1,380 Climbing FlightAware
02:58PM 38.1720 -120.5990 73° East 464 534 28,300 1,560 Climbing FlightAware
02:58PM 38.1920 -120.5160 73° East 462 532 29,200 1,560 Climbing FlightAware
02:59PM 38.2160 -120.4180 73° East 458 527 30,100 1,440 Climbing FlightAware
02:59PM 38.2380 -120.3250 73° East 457 526 31,000 1,380 Climbing FlightAware
03:00PM 38.2600 -120.2340 73° East 455 524 31,800 1,260 Climbing FlightAware
03:00PM 38.2351 -120.3374 253° West 455 524 31,900 1,320 Climbing FlightAware ADS-B (KAHC)
03:01PM 38.2869 -120.1186 73° East 451 519 32,800 1,320 Climbing FlightAware ADS-B (KAHC)
03:01PM 38.3060 -120.0390 73° East 448 516 33,500 1,440 Climbing FlightAware
03:02PM 38.3260 -119.9520 74° East 442 509 34,400 1,200 Climbing FlightAware
03:02PM 38.3470 -119.8640 73° East 442 509 34,900 480 Climbing FlightAware
03:03PM 38.3660 -119.7790 74° East 447 514 35,000 180 Climbing FlightAware
03:04PM 38.3723 -119.7537 72° East 449 517 35,100 300 Climbing FlightAware ADS-B (KAHC)
03:04PM 38.4074 -119.6022 73° East 459 528 35,400 480 Climbing FlightAware ADS-B (KAHC)
03:05PM 38.4262 -119.5203 74° East 465 535 35,700 480 Climbing FlightAware ADS-B (KAHC)
03:05PM 38.4518 -119.4077 74° East 473 544 36,000 480 Climbing FlightAware ADS-B (KAHC)
03:06PM 38.4702 -119.3267 74° East 476 548 36,300 600 Climbing FlightAware ADS-B (KAHC)
03:06PM 38.4882 -119.2474 74° East 479 551 36,600 660 Climbing FlightAware ADS-B (KAHC)
03:07PM 38.5056 -119.1545 77° East 487 560 37,000 360 Climbing FlightAware ADS-B (KAHC)
03:07PM 38.5157 -119.0701 81° East 487 560 37,000  Level FlightAware ADS-B (KAHC)
03:08PM 38.5248 -118.9802 83° East 483 556 37,000  Level FlightAware ADS-B (KAHC)
03:09PM 38.5365 -118.8641 83° East 475 547 37,000  Level FlightAware ADS-B (KAHC)
03:10PM 38.5540 -118.6980 82° East 468 539 37,000  Level FlightAware
03:10PM 38.5630 -118.6010 83° East 461 531 37,000  Level FlightAware
03:11PM 38.5720 -118.5060 83° East 459 528 37,000  Level FlightAware
03:12PM 38.5820 -118.4020 83° East 459 528 37,000  Level FlightAware
03:12PM 38.5910 -118.3080 83° East 462 532 37,000  Level FlightAware
03:13PM 38.6010 -118.2040 83° East 467 537 37,000  Level FlightAware
03:13PM 38.6090 -118.1180 83° East 472 543 37,000  Level FlightAware
03:14PM 38.6220 -117.9830 83° East 474 545 37,000  Level FlightAware
03:15PM 38.6300 -117.8980 83° East 474 545 37,000  Level FlightAware
03:15PM 38.6380 -117.8120 83° East 474 545 37,000  Level FlightAware
03:16PM 38.6460 -117.7270 83° East 474 545 37,000  Level FlightAware
03:16PM 38.6520 -117.6700 82° East 474 545 37,000  Level FlightAware
03:17PM 38.6630 -117.5560 83° East 474 545 37,000  Level FlightAware
03:18PM 38.6710 -117.4710 83° East 474 545 37,000  Level FlightAware
03:18PM 38.6790 -117.3830 83° East 474 545 37,000  Level FlightAware
03:19PM 38.6900 -117.2720 83° East 474 545 37,000  Level FlightAware
03:20PM 38.6980 -117.1870 83° East 474 545 37,000  Level FlightAware
03:20PM 38.7060 -117.1010 83° East 474 545 37,000  Level FlightAware
03:21PM 38.7150 -117.0140 82° East 474 545 37,000  Level FlightAware
03:22PM 38.7230 -116.9280 83° East 474 545 37,000  Level FlightAware
03:22PM 38.7310 -116.8400 83° East 474 545 37,000  Level FlightAware
03:23PM 38.7390 -116.7550 83° East 474 545 37,000  Level FlightAware
03:23PM 38.7480 -116.6670 83° East 474 545 37,000  Level FlightAware
03:24PM 38.8192 -116.3444 83° East 482 555 37,000  Level Oakland Center
03:25PM 38.8442 -116.1742 79° East 485 558 37,000  Level Oakland Center
03:26PM 38.8625 -116.0361 80° East 488 562 37,000  Level Salt Lake Center
03:27PM 38.8861 -115.8656 80° East 485 558 37,000  Level Salt Lake Center
03:28PM 38.9100 -115.6928 80° East 491 565 37,000  Level Salt Lake Center
03:29PM 38.9342 -115.5208 80° East 490 564 37,000  Level Salt Lake Center
03:30PM 38.9611 -115.3183 80° East 490 564 37,000  Level Salt Lake Center
03:31PM 38.9844 -115.1447 80° East 493 567 37,000  Level Salt Lake Center
03:32PM 39.0083 -114.9711 80° East 493 567 37,000  Level Salt Lake Center
03:38PM 39.1517 -113.8770 80° East 506 582 37,000  Level FlightAware ADS-B
03:39PM 39.1643 -113.7723 81° East 507 583 37,000  Level FlightAware ADS-B
03:39PM 39.1826 -113.6169 81° East 510 587 37,000  Level FlightAware ADS-B
03:40PM 39.1961 -113.5032 81° East 512 589 37,000  Level FlightAware ADS-B
03:41PM 39.2095 -113.3881 81° East 512 589 37,000  Level FlightAware ADS-B
03:42PM 39.2281 -113.2260 82° East 514 592 37,000  Level FlightAware ADS-B
03:42PM 39.2388 -113.1329 82° East 513 590 37,000  Level FlightAware ADS-B
03:42PM 39.2436 -113.0900 82° East 513 590 37,000  Level FlightAware ADS-B
03:43PM 39.2504 -113.0298 82° East 514 592 37,000  Level FlightAware ADS-B
03:43PM 39.2573 -112.9690 82° East 515 593 37,000  Level FlightAware ADS-B
03:43PM 39.2659 -112.8912 82° East 515 593 37,000  Level FlightAware ADS-B
03:44PM 39.2681 -112.8720 82° East 515 593 37,000  Level FlightAware ADS-B
03:44PM 39.2772 -112.7900 82° East 516 594 37,000  Level FlightAware ADS-B
03:44PM 39.2782 -112.7810 82° East 516 594 37,000  Level FlightAware ADS-B
03:45PM 39.2905 -112.6690 82° East 516 594 37,000  Level FlightAware ADS-B
03:45PM 39.2947 -112.6299 82° East 517 595 37,000  Level FlightAware ADS-B
03:45PM 39.3006 -112.5760 82° East 518 596 37,000  Level FlightAware ADS-B
03:45PM 39.3063 -112.5387 79° East 522 601 37,000  Level FlightAware ADS-B
03:45PM 39.3097 -112.5220 75° East 524 603 37,000  Level FlightAware ADS-B
03:46PM 39.3179 -112.4870 73° East 527 606 37,000  Level FlightAware ADS-B
03:46PM 39.3302 -112.4452 69° East 530 610 37,000  Level FlightAware ADS-B
03:46PM 39.3503 -112.3870 66° East 531 611 37,000  Level FlightAware ADS-B
03:47PM 39.3716 -112.3292 65° Northeast 533 613 37,000  Level FlightAware ADS-B
03:47PM 39.3856 -112.2910 65° Northeast 533 613 37,000  Level FlightAware ADS-B
03:47PM 39.4100 -112.2259 64° Northeast 535 616 37,000  Level FlightAware ADS-B
03:47PM 39.4234 -112.1900 64° Northeast 537 618 37,000  Level FlightAware ADS-B
03:48PM 39.4422 -112.1386 65° Northeast 537 618 37,000  Level FlightAware ADS-B
03:48PM 39.4628 -112.0830 64° Northeast 537 618 37,000  Level FlightAware ADS-B
03:48PM 39.4746 -112.0508 65° Northeast 538 619 37,000  Level FlightAware ADS-B
03:48PM 39.4947 -111.9960 65° Northeast 539 620 37,000  Level FlightAware ADS-B
03:49PM 39.5101 -111.9537 65° Northeast 540 621 37,000  Level FlightAware ADS-B
03:49PM 39.5268 -111.9080 65° Northeast 540 621 37,000  Level FlightAware ADS-B
03:49PM 39.5441 -111.8603 65° Northeast 541 623 37,000  Level FlightAware ADS-B
03:49PM 39.5588 -111.8200 65° Northeast 541 623 37,000  Level FlightAware ADS-B
03:50PM 39.5928 -111.7260 65° Northeast 542 624 37,000  Level FlightAware ADS-B
03:50PM 39.6017 -111.7010 65° Northeast 543 625 37,000  Level FlightAware ADS-B
03:51PM 39.6260 -111.6340 65° Northeast 544 626 37,000  Level FlightAware ADS-B
03:51PM 39.6605 -111.5370 65° Northeast 547 629 37,000  Level FlightAware ADS-B
03:51PM 39.6744 -111.4983 65° Northeast 548 631 37,000  Level FlightAware ADS-B
03:52PM 39.6924 -111.4480 65° Northeast 550 633 37,000  Level FlightAware ADS-B
03:52PM 39.7293 -111.3450 65° Northeast 552 635 37,000  Level FlightAware ADS-B
03:52PM 39.7304 -111.3415 68° East 553 636 37,000  Level FlightAware ADS-B
03:53PM 39.7616 -111.2540 65° Northeast 554 638 37,000  Level FlightAware ADS-B
03:53PM 39.7701 -111.2298 65° Northeast 555 639 37,000  Level FlightAware ADS-B
03:53PM 39.7942 -111.1620 65° Northeast 554 638 37,000  Level FlightAware ADS-B
03:53PM 39.8080 -111.1230 65° Northeast 554 638 37,000  Level FlightAware ADS-B
03:54PM 39.8264 -111.0710 65° Northeast 557 641 37,000  Level FlightAware ADS-B
03:54PM 39.8400 -111.0325 65° Northeast 558 642 37,000  Level FlightAware ADS-B
03:54PM 39.8596 -110.9770 65° Northeast 558 642 37,000  Level FlightAware ADS-B
03:54PM 39.8646 -110.9627 65° Northeast 559 643 37,000  Level FlightAware ADS-B
03:55PM 39.8921 -110.8850 65° Northeast 558 642 37,000  Level FlightAware ADS-B
03:55PM 39.9063 -110.8437 66° East 559 643 37,000  Level FlightAware ADS-B
03:55PM 39.9286 -110.7800 65° Northeast 560 644 37,000  Level FlightAware ADS-B
03:55PM 39.9374 -110.7549 65° Northeast 560 644 37,000  Level FlightAware ADS-B
03:56PM 39.9714 -110.6578 65° Northeast 562 647 37,000  Level FlightAware ADS-B
03:56PM 40.0052 -110.5605 66° East 563 648 37,000  Level FlightAware ADS-B
03:57PM 40.0397 -110.4609 66° East 564 649 37,000  Level FlightAware ADS-B
03:58PM 40.0771 -110.3528 66° East 564 649 37,000  Level FlightAware ADS-B
03:58PM 40.1093 -110.2592 66° East 559 643 37,000  Level FlightAware ADS-B
03:59PM 40.1493 -110.1359 67° East 554 638 37,000  Level FlightAware ADS-B
03:59PM 40.1732 -110.0446 71° East 552 635 37,000  Level FlightAware ADS-B
04:00PM 40.1955 -109.9471 73° East 552 635 37,000  Level FlightAware ADS-B
04:00PM 40.2176 -109.8482 74° East 553 636 37,000  Level FlightAware ADS-B
04:01PM 40.2413 -109.7411 74° East 549 632 37,000  Level FlightAware ADS-B
04:01PM 40.2628 -109.6429 74° East 548 631 37,000  Level FlightAware ADS-B
04:02PM 40.2820 -109.5559 74° East 547 629 37,000  Level FlightAware ADS-B
04:02PM 40.3055 -109.4478 74° East 548 631 37,000  Level FlightAware ADS-B
04:03PM 40.3277 -109.3459 74° East 548 631 37,000  Level FlightAware ADS-B
04:04PM 40.3541 -109.2242 74° East 549 632 37,000  Level FlightAware ADS-B
04:04PM 40.3754 -109.1250 74° East 550 633 37,000  Level FlightAware ADS-B
04:05PM 40.4045 -108.9896 74° East 550 633 37,000  Level FlightAware ADS-B
04:05PM 40.4314 -108.8641 74° East 550 633 37,000  Level FlightAware ADS-B
04:06PM 40.4538 -108.7580 74° East 551 634 37,000  Level FlightAware ADS-B
04:06PM 40.4737 -108.6644 74° East 552 635 37,000  Level FlightAware ADS-B
04:07PM 40.4954 -108.5608 75° East 554 638 37,000  Level FlightAware ADS-B
04:07PM 40.5170 -108.4581 75° East 555 639 37,000  Level FlightAware ADS-B
04:08PM 40.5383 -108.3556 75° East 553 636 37,000  Level FlightAware ADS-B
04:08PM 40.5583 -108.2591 75° East 554 638 37,000  Level FlightAware ADS-B
04:09PM 40.5794 -108.1568 75° East 554 638 37,000  Level FlightAware ADS-B
04:10PM 40.6015 -108.0490 75° East 555 639 37,000  Level FlightAware ADS-B
04:10PM 40.6289 -107.9140 75° East 552 635 37,000  Level FlightAware ADS-B
04:11PM 40.6485 -107.8180 75° East 546 628 37,000  Level FlightAware ADS-B
04:11PM 40.6699 -107.7115 75° East 544 626 37,000  Level FlightAware ADS-B
04:12PM 40.6889 -107.6170 75° East 545 627 37,000  Level FlightAware ADS-B
04:12PM 40.7079 -107.5219 75° East 544 626 37,000  Level FlightAware ADS-B
04:13PM 40.7340 -107.3907 75° East 539 620 37,000  Level FlightAware ADS-B
04:14PM 40.7650 -107.2340 75° East 540 621 37,000  Level FlightAware
04:14PM 40.7870 -107.1210 76° East 541 623 37,000  Level FlightAware
04:15PM 40.8110 -107.0000 75° East 542 624 37,000  Level FlightAware
04:16PM 40.8400 -106.8510 76° East 543 625 37,000  Level FlightAware
04:16PM 40.8620 -106.7360 76° East 542 624 37,000  Level FlightAware
04:17PM 40.8790 -106.6440 76° East 540 621 37,000  Level FlightAware
04:18PM 40.9050 -106.5120 75° East 540 621 37,000  Level FlightAware
04:18PM 40.9290 -106.3840 76° East 537 618 37,000  Level FlightAware
04:19PM 40.9470 -106.2861 76° East 536 617 37,000  Level FlightAware ADS-B (KEIK)
04:19PM 40.9721 -106.1519 76° East 538 619 37,000  Level FlightAware ADS-B (KEIK)
04:20PM 40.9900 -106.0540 76° East 538 619 37,000  Level FlightAware
04:20PM 40.9964 -106.0217 75° East 537 618 37,000  Level FlightAware ADS-B (KEIK)
04:21PM 41.0208 -105.8880 76° East 538 619 37,000  Level FlightAware ADS-B (KEIK)
04:22PM 41.0530 -105.7100 76° East 537 618 37,000  Level FlightAware
04:22PM 41.0605 -105.6710 76° East 538 619 37,000  Level FlightAware ADS-B (KEIK)
04:23PM 41.0834 -105.5443 77° East 539 620 37,000  Level FlightAware ADS-B (KEIK)
04:23PM 41.1006 -105.4478 77° East 539 620 37,000  Level FlightAware ADS-B (KEIK)
04:24PM 41.1310 -105.2770 77° East 537 618 37,000  Level FlightAware
04:25PM 41.1500 -105.1690 77° East 537 618 37,000  Level FlightAware
04:25PM 41.1690 -105.0640 76° East 536 617 37,000  Level FlightAware
04:26PM 41.1900 -104.9420 77° East 536 617 37,000  Level FlightAware
04:26PM 41.2120 -104.8200 76° East 537 618 37,000  Level FlightAware
04:27PM 41.2199 -104.7795 75° East 539 620 37,000  Level FlightAware ADS-B (KEIK)
04:27PM 41.2508 -104.6421 73° East 539 620 37,000  Level FlightAware ADS-B (KEIK)
04:28PM 41.2766 -104.5331 73° East 539 620 37,000  Level FlightAware ADS-B (KEIK)
04:29PM 41.3090 -104.3940 73° East 538 619 37,000  Level FlightAware
04:29PM 41.3222 -104.3393 72° East 538 619 37,000  Level FlightAware ADS-B (KEIK)
04:30PM 41.3640 -104.1610 73° East 538 619 37,000  Level FlightAware
04:30PM 41.3900 -104.0470 73° East 538 619 37,000  Level FlightAware
04:31PM 41.4160 -103.9330 73° East 540 621 37,000  Level FlightAware
04:32PM 41.4410 -103.8280 72° East 540 621 37,000  Level FlightAware
04:32PM 41.4650 -103.7220 73° East 541 623 37,000  Level FlightAware
04:33PM 41.4920 -103.6010 73° East 540 621 37,000  Level FlightAware
04:33PM 41.5170 -103.4910 73° East 541 623 37,000  Level FlightAware
04:34PM 41.5480 -103.3520 73° East 541 623 37,000  Level FlightAware
04:35PM 41.5720 -103.2440 73° East 541 623 37,000  Level FlightAware
04:36PM 41.6130 -103.0630 73° East 543 625 37,000  Level FlightAware
04:36PM 41.6360 -102.9620 73° East 543 625 37,000  Level FlightAware
04:37PM 41.6580 -102.8640 73° East 543 625 37,000  Level FlightAware
04:37PM 41.6880 -102.7200 74° East 542 624 37,000  Level FlightAware
04:38PM 41.7150 -102.5970 74° East 543 625 37,000  Level FlightAware
04:39PM 41.7410 -102.4800 73° East 543 625 37,000  Level FlightAware
04:39PM 41.7630 -102.3870 72° East 543 625 37,000  Level FlightAware
04:40PM 41.7860 -102.2860 73° East 543 625 37,000  Level FlightAware
04:41PM 41.8080 -102.1870 73° East 543 625 37,000  Level FlightAware
04:41PM 41.8310 -102.0860 73° East 543 625 37,000  Level FlightAware
04:42PM 41.8600 -101.9590 73° East 543 625 37,000  Level FlightAware
04:43PM 41.8830 -101.8580 73° East 543 625 37,000  Level FlightAware
04:43PM 41.9070 -101.7540 73° East 543 625 37,000  Level FlightAware
04:44PM 41.9300 -101.6520 73° East 543 625 37,000  Level FlightAware
04:44PM 41.9520 -101.5530 73° East 543 625 37,000  Level FlightAware
04:45PM 41.9750 -101.4540 73° East 543 625 37,000  Level FlightAware
04:46PM 41.9980 -101.3530 73° East 543 625 37,000  Level FlightAware
04:46PM 42.0210 -101.2510 73° East 543 625 37,000  Level FlightAware
04:47PM 42.0430 -101.1550 73° East 543 625 37,000  Level FlightAware
04:47PM 42.0650 -101.0560 73° East 543 625 37,000  Level FlightAware
04:48PM 42.0880 -100.9570 73° East 543 625 37,000  Level FlightAware
04:52PM 42.1062 -99.7746 88° East 541 623 37,000  Level FlightAware ADS-B
04:53PM 42.1069 -99.6672 88° East 541 623 37,000  Level Minneapolis Center
04:54PM 42.1197 -99.5464 82° East 541 623 37,000  Level Denver Center
04:55PM 42.1436 -99.3464 81° East 539 620 37,000  Level Denver Center
04:56PM 42.1664 -99.1450 81° East 540 621 37,000  Level Denver Center
04:57PM 42.1936 -98.9047 81° East 538 619 37,000  Level Denver Center
04:58PM 42.2150 -98.7031 82° East 540 621 37,000  Level Denver Center
04:59PM 42.2375 -98.5017 81° East 541 623 37,000  Level Denver Center
05:04PM 42.3700 -97.3500 81° East 546 628 37,000  Level FlightAware
05:05PM 42.3810 -97.2380 82° East 546 628 37,000  Level FlightAware
05:06PM 42.3940 -97.1060 82° East 546 628 37,000  Level FlightAware
05:06PM 42.4050 -96.9910 83° East 545 627 37,000  Level FlightAware
05:07PM 42.4170 -96.8680 82° East 544 626 37,000  Level FlightAware
05:07PM 42.4260 -96.7710 83° East 543 625 37,000  Level FlightAware
05:08PM 42.4380 -96.6370 83° East 542 624 37,000  Level FlightAware
05:09PM 42.4490 -96.5240 82° East 541 623 37,000  Level FlightAware
05:09PM 42.4590 -96.4070 83° East 539 620 37,000  Level FlightAware
05:10PM 42.4700 -96.2930 83° East 539 620 37,000  Level FlightAware
05:10PM 42.4800 -96.1750 83° East 539 620 37,000  Level FlightAware
05:11PM 42.4870 -96.0990 83° East 539 620 37,000  Level FlightAware
05:11PM 42.5010 -95.9370 83° East 538 619 37,000  Level FlightAware
05:12PM 42.5110 -95.8220 83° East 539 620 37,000  Level FlightAware
05:13PM 42.5210 -95.6970 84° East 540 621 37,000  Level FlightAware
05:13PM 42.5300 -95.5950 83° East 540 621 37,000  Level FlightAware
05:14PM 42.5390 -95.4770 84° East 541 623 37,000  Level FlightAware
05:14PM 42.5474 -95.3789 83° East 541 623 37,000  Level FlightAware ADS-B (LPVM)
05:15PM 42.5558 -95.2757 84° East 540 621 37,000  Level FlightAware ADS-B (LPVM)
05:15PM 42.5679 -95.1217 84° East 541 623 37,000  Level FlightAware ADS-B (LPVM)
05:16PM 42.5780 -94.9980 84° East 541 623 37,000  Level FlightAware
05:17PM 42.5860 -94.8880 84° East 541 623 37,000  Level FlightAware
05:17PM 42.5937 -94.7889 84° East 541 623 37,000  Level FlightAware ADS-B (LPVM)
05:18PM 42.6050 -94.6390 84° East 540 621 37,000  Level FlightAware
05:19PM 42.6141 -94.5169 84° East 541 623 37,000  Level FlightAware ADS-B
05:19PM 42.6212 -94.4210 84° East 541 623 37,000  Level FlightAware ADS-B (LPVM)
05:20PM 42.6301 -94.2970 84° East 541 623 37,000  Level FlightAware ADS-B (LPVM)
05:20PM 42.6345 -94.1738 87° East 540 621 37,000  Level FlightAware ADS-B (LPVM)
05:21PM 42.6340 -94.0490 90° East 539 620 37,000  Level FlightAware
05:21PM 42.6341 -94.0390 89° East 539 620 37,000  Level FlightAware ADS-B (LPVM)
05:21PM 42.6340 -93.9101 90° East 539 620 37,000  Level FlightAware ADS-B (LPVM)
05:23PM 42.6350 -93.6990 90° East 540 621 37,000  Level FlightAware
05:23PM 42.6360 -93.5860 89° East 540 621 37,000  Level FlightAware
05:24PM 42.6366 -93.4935 89° East 540 621 37,000  Level FlightAware ADS-B (LPVM)
05:24PM 42.6376 -93.3385 89° East 539 620 37,000  Level FlightAware ADS-B (LPVM)
05:25PM 42.6380 -93.2320 90° East 538 619 37,000  Level FlightAware
05:25PM 42.6380 -93.1110 90° East 537 618 37,000  Level FlightAware
05:26PM 42.6390 -92.9870 89° East 537 618 37,000  Level FlightAware
05:27PM 42.6390 -92.8730 90° East 537 618 37,000  Level FlightAware
05:27PM 42.6380 -92.7640 91° East 536 617 37,000  Level FlightAware
05:28PM 42.6381 -92.6652 90° East 536 617 37,000  Level FlightAware ADS-B (LPVM)
05:28PM 42.6378 -92.5458 90° East 536 617 37,000  Level FlightAware ADS-B (LPVM)
05:29PM 42.6373 -92.4141 90° East 535 616 37,000  Level FlightAware ADS-B (LPVM)
05:30PM 42.6360 -92.2630 91° East 533 613 37,000  Level FlightAware
05:30PM 42.6359 -92.2070 90° East 532 612 37,000  Level FlightAware ADS-B (LPVM)
05:31PM 42.6340 -92.0230 91° East 532 612 37,000  Level FlightAware
05:31PM 42.6340 -91.9470 90° East 531 611 37,000  Level FlightAware ADS-B (LPVM)
05:32PM 42.6326 -91.8147 91° East 531 611 37,000  Level FlightAware ADS-B (LPVM)
05:33PM 42.6310 -91.6790 91° East 530 610 37,000  Level FlightAware
05:33PM 42.6297 -91.5647 91° East 530 610 37,000  Level FlightAware ADS-B (LPVM)
05:34PM 42.6276 -91.4028 91° East 529 609 37,000  Level FlightAware ADS-B (LPVM)
05:35PM 42.6259 -91.2856 91° East 529 609 37,000  Level FlightAware ADS-B (LPVM)
05:35PM 42.6242 -91.1735 91° East 529 609 37,000  Level FlightAware ADS-B (LPVM)
05:36PM 42.6220 -91.0392 91° East 528 608 37,000  Level FlightAware ADS-B (LPVM)
05:37PM 42.6194 -90.8855 91° East 528 608 37,000  Level FlightAware ADS-B (LPVM)
05:37PM 42.6170 -90.7580 91° East 527 606 37,000  Level FlightAware
05:38PM 42.6140 -90.6400 92° East 527 606 37,000  Level FlightAware
05:38PM 42.6120 -90.5340 91° East 526 605 37,000  Level FlightAware
05:39PM 42.6090 -90.4060 92° East 526 605 37,000  Level FlightAware
05:40PM 42.6070 -90.2830 91° East 525 604 37,000  Level FlightAware
05:40PM 42.6040 -90.1850 92° East 525 604 37,000  Level FlightAware
05:41PM 42.6010 -90.0690 92° East 525 604 37,000  Level FlightAware
05:41PM 42.5980 -89.9520 92° East 524 603 37,000  Level FlightAware
05:42PM 42.5950 -89.8300 92° East 524 603 37,000  Level FlightAware
05:42PM 42.5920 -89.7180 92° East 523 602 37,000  Level FlightAware
05:43PM 42.5880 -89.5960 93° East 522 601 37,000  Level FlightAware
05:44PM 42.5850 -89.4850 92° East 521 600 37,000  Level FlightAware
05:44PM 42.5810 -89.3780 93° East 521 600 37,000  Level FlightAware
05:45PM 42.5780 -89.2600 92° East 520 598 37,000  Level FlightAware
05:45PM 42.5740 -89.1450 93° East 520 598 37,000  Level FlightAware
05:46PM 42.5700 -89.0340 93° East 519 597 37,000  Level FlightAware
05:47PM 42.5660 -88.9220 93° East 519 597 37,000  Level FlightAware
05:47PM 42.5620 -88.8090 93° East 520 598 37,000  Level FlightAware
05:48PM 42.5570 -88.6890 93° East 520 598 37,000  Level FlightAware
05:48PM 42.5530 -88.5890 93° East 520 598 37,000  Level FlightAware
05:49PM 42.5490 -88.4720 93° East 519 597 37,000  Level FlightAware
05:49PM 42.5440 -88.3550 93° East 519 597 37,000  Level FlightAware
05:50PM 42.5390 -88.2380 93° East 519 597 37,000  Level FlightAware
05:51PM 42.5350 -88.1280 93° East 519 597 37,000  Level FlightAware
05:51PM 42.5300 -88.0110 93° East 520 598 37,000  Level FlightAware
05:52PM 42.5290 -87.8740 91° East 520 598 37,000  Level FlightAware
05:53PM 42.5290 -87.7570 90° East 520 598 37,000  Level FlightAware
05:53PM 42.5290 -87.6230 90° East 520 598 37,000  Level FlightAware
05:54PM 42.5290 -87.5140 90° East 520 598 37,000  Level FlightAware
05:54PM 42.5280 -87.3930 91° East 520 598 37,000  Level FlightAware
05:55PM 42.5280 -87.2840 90° East 519 597 37,000  Level FlightAware
05:56PM 42.5270 -87.1570 91° East 519 597 37,000  Level FlightAware
05:56PM 42.5260 -87.0630 91° East 518 596 37,000  Level FlightAware
05:57PM 42.5250 -86.9270 91° East 517 595 37,000  Level FlightAware
05:57PM 42.5240 -86.8040 91° East 516 594 37,000  Level FlightAware
05:58PM 42.5230 -86.6930 91° East 515 593 37,000  Level FlightAware
05:59PM 42.5220 -86.5820 91° East 514 592 37,000  Level FlightAware
05:59PM 42.5210 -86.4720 91° East 513 590 37,000  Level FlightAware
06:00PM 42.5190 -86.3580 91° East 512 589 37,000  Level FlightAware
06:00PM 42.5170 -86.2460 91° East 509 586 37,000  Level FlightAware
06:01PM 42.5160 -86.1360 91° East 507 583 37,000  Level FlightAware
06:01PM 42.5140 -86.0290 91° East 506 582 37,000  Level FlightAware
06:02PM 42.5120 -85.9170 91° East 504 580 37,000  Level FlightAware
06:03PM 42.5100 -85.8030 91° East 502 578 37,000  Level FlightAware
06:03PM 42.5080 -85.6930 91° East 501 577 37,000  Level FlightAware
06:04PM 42.5050 -85.5730 92° East 500 575 37,000  Level FlightAware
06:05PM 42.5030 -85.4600 91° East 500 575 37,000  Level FlightAware
06:05PM 42.5000 -85.3370 92° East 500 575 37,000  Level FlightAware
06:06PM 42.4980 -85.2370 92° East 499 574 37,000  Level FlightAware
06:06PM 42.4950 -85.1250 92° East 499 574 37,000  Level FlightAware
06:07PM 42.4930 -85.0250 92° East 499 574 37,000  Level FlightAware
06:07PM 42.4890 -84.9090 93° East 499 574 37,000  Level FlightAware
06:08PM 42.4860 -84.7910 92° East 497 572 37,000  Level FlightAware
06:09PM 42.4830 -84.6900 92° East 496 571 37,000  Level FlightAware
06:09PM 42.4800 -84.5820 92° East 495 570 37,000  Level FlightAware
06:10PM 42.4770 -84.4710 92° East 494 568 37,000  Level FlightAware
06:10PM 42.4740 -84.3730 92° East 494 568 37,000  Level FlightAware
06:11PM 42.4710 -84.2950 93° East 495 570 37,000  Level FlightAware
06:11PM 42.4670 -84.1550 92° East 494 568 37,000  Level FlightAware
06:12PM 42.4630 -84.0580 93° East 494 568 37,000  Level FlightAware
06:13PM 42.4590 -83.9470 93° East 494 568 37,000  Level FlightAware
06:13PM 42.4550 -83.8350 93° East 494 568 37,000  Level FlightAware
06:14PM 42.4510 -83.7360 93° East 494 568 37,000  Level FlightAware
06:14PM 42.4470 -83.6180 93° East 492 566 37,000  Level FlightAware
06:15PM 42.4430 -83.5110 93° East 491 565 37,000  Level FlightAware
06:16PM 42.4380 -83.3980 93° East 489 563 37,000  Level FlightAware
06:16PM 42.4340 -83.3020 93° East 488 562 37,000  Level FlightAware
06:17PM 42.4300 -83.1930 93° East 486 559 37,000  Level FlightAware
06:17PM 42.4250 -83.0840 94° East 485 558 37,000  Level FlightAware
06:18PM 42.4200 -82.9870 94° East 484 557 37,000  Level FlightAware
06:18PM 42.4150 -82.8770 93° East 483 556 37,000  Level FlightAware
06:19PM 42.4110 -82.7710 93° East 481 554 37,000  Level FlightAware
06:20PM 42.4050 -82.6620 94° East 481 554 37,000  Level FlightAware
06:20PM 42.4020 -82.5690 92° East 480 552 37,000  Level FlightAware
06:21PM 42.3970 -82.4530 93° East 480 552 37,000  Level FlightAware
06:21PM 42.3930 -82.3570 93° East 480 552 37,000  Level FlightAware
06:22PM 42.3890 -82.2530 93° East 480 552 37,000  Level FlightAware
06:23PM 42.3830 -82.1190 93° East 480 552 37,000  Level FlightAware
06:23PM 42.3790 -82.0220 93° East 480 552 37,000  Level FlightAware
06:24PM 42.3740 -81.9140 94° East 480 552 37,000  Level FlightAware
06:24PM 42.3690 -81.8040 93° East 479 551 37,000  Level FlightAware
06:25PM 42.3640 -81.7050 94° East 478 550 37,000  Level FlightAware
06:26PM 42.3580 -81.5860 94° East 477 549 37,000  Level FlightAware
06:26PM 42.3530 -81.4750 93° East 477 549 37,000  Level FlightAware
06:27PM 42.3470 -81.3670 94° East 476 548 37,000  Level FlightAware
06:27PM 42.3420 -81.2710 94° East 476 548 37,000  Level FlightAware
06:28PM 42.3370 -81.1670 94° East 476 548 37,000  Level FlightAware
06:29PM 42.3310 -81.0540 94° East 474 545 37,000  Level FlightAware
06:29PM 42.3260 -80.9490 94° East 470 541 37,000  Level FlightAware
06:30PM 42.3210 -80.8600 94° East 466 536 37,000  Level FlightAware
06:30PM 42.3150 -80.7560 94° East 463 533 37,000  Level FlightAware
06:31PM 42.3090 -80.6550 95° East 463 533 37,000  Level FlightAware
06:31PM 42.3040 -80.5570 94° East 462 532 37,000  Level FlightAware
06:32PM 42.2970 -80.4460 95° East 461 531 37,000  Level FlightAware
06:33PM 42.2920 -80.3520 94° East 460 529 37,000  Level FlightAware
06:33PM 42.2860 -80.2520 95° East 459 528 37,000  Level FlightAware
06:34PM 42.2800 -80.1490 94° East 458 527 37,000  Level FlightAware
06:34PM 42.2740 -80.0490 95° East 458 527 37,000  Level FlightAware
06:35PM 42.2680 -79.9580 95° East 457 526 37,000  Level FlightAware
06:36PM 42.2610 -79.8530 95° East 457 526 37,000  Level FlightAware
06:36PM 42.2550 -79.7480 94° East 457 526 37,000  Level FlightAware
06:37PM 42.2490 -79.6580 95° East 457 526 37,000  Level FlightAware
06:37PM 42.2430 -79.5590 95° East 456 525 37,000  Level FlightAware
06:38PM 42.2360 -79.4540 95° East 456 525 37,000  Level FlightAware
06:39PM 42.2290 -79.3550 95° East 456 525 37,000  Level FlightAware
06:39PM 42.2230 -79.2570 95° East 456 525 37,000  Level FlightAware
06:40PM 42.2160 -79.1600 96° East 457 526 37,000  Level FlightAware
06:40PM 42.2020 -79.0650 101° East 459 528 37,000  Level FlightAware
06:41PM 42.1770 -78.9610 108° East 459 528 37,000  Level FlightAware
06:41PM 42.1550 -78.8730 109° East 459 528 37,000  Level FlightAware
06:42PM 42.1300 -78.7730 109° East 458 527 37,000  Level FlightAware
06:43PM 42.1080 -78.6870 109° East 458 527 37,000  Level FlightAware
06:43PM 42.0840 -78.5920 109° East 459 528 37,000  Level FlightAware
06:44PM 42.0590 -78.4940 109° East 462 532 37,000  Level FlightAware
06:44PM 42.0350 -78.3990 109° East 468 539 37,000  Level FlightAware
06:45PM 42.0100 -78.3010 109° East 471 542 37,000  Level FlightAware
06:46PM 41.9800 -78.1820 109° East 468 539 37,000  Level FlightAware
06:46PM 41.9570 -78.0940 109° East 467 537 37,000  Level FlightAware
06:47PM 41.9300 -77.9900 109° East 466 536 37,000  Level FlightAware
06:47PM 41.9060 -77.8970 109° East 468 539 37,000  Level FlightAware
06:48PM 41.8850 -77.8140 109° East 469 540 37,000  Level FlightAware
06:49PM 41.8580 -77.7120 110° East 469 540 37,000  Level FlightAware
06:49PM 41.8310 -77.6110 110° East 469 540 37,000  Level FlightAware
06:50PM 41.8060 -77.5130 109° East 469 540 37,000  Level FlightAware
06:50PM 41.7790 -77.4140 110° East 470 541 37,000  Level FlightAware
06:51PM 41.7570 -77.3310 110° East 469 540 37,000  Level FlightAware
06:51PM 41.7310 -77.2320 109° East 470 541 37,000  Level FlightAware
06:52PM 41.7050 -77.1340 110° East 469 540 37,000  Level FlightAware
06:53PM 41.6790 -77.0360 110° East 469 540 37,000  Level FlightAware
06:53PM 41.6550 -76.9460 110° East 468 539 37,000  Level FlightAware
06:54PM 41.6280 -76.8470 110° East 467 537 37,000  Level FlightAware
06:54PM 41.6010 -76.7490 110° East 466 536 37,000  Level FlightAware
06:55PM 41.5770 -76.6590 110° East 466 536 37,000  Level FlightAware
06:56PM 41.5500 -76.5630 111° Southeast 467 537 37,000  Level FlightAware
06:56PM 41.5250 -76.4700 110° East 466 536 37,000  Level FlightAware
06:57PM 41.5020 -76.3860 110° East 465 535 37,000 -360 Level FlightAware
06:57PM 41.4750 -76.2860 110° East 460 529 36,600 -1,020 Descending FlightAware
06:58PM 41.4470 -76.1880 111° Southeast 464 534 35,800 -1,260 Descending FlightAware
06:58PM 41.4260 -76.1120 110° East 465 535 35,200 -1,440 Descending FlightAware
06:59PM 41.3960 -76.0030 110° East 470 541 34,200 -1,800 Descending FlightAware
07:00PM 41.3670 -75.9000 111° Southeast 472 543 33,100 -2,220 Descending FlightAware
07:00PM 41.3400 -75.8030 110° East 472 543 31,600 -3,120 Descending FlightAware
07:01PM 41.3140 -75.7110 111° Southeast 477 549 29,500 -3,780 Descending FlightAware
07:01PM 41.2830 -75.6120 113° Southeast 480 552 27,200 -3,060 Descending FlightAware
07:02PM 41.2590 -75.5380 113° Southeast 466 536 26,100 -2,400 Descending FlightAware
07:02PM 41.2270 -75.4440 114° Southeast 450 518 24,600 -2,400 Descending FlightAware
07:03PM 41.1970 -75.3520 113° Southeast 434 499 23,200 -1,320 Descending FlightAware
07:04PM 41.1670 -75.2630 114° Southeast 433 498 23,000 -180 Descending FlightAware
07:04PM 41.1380 -75.1780 114° Southeast 436 502 23,000  Level FlightAware
07:05PM 41.1080 -75.0880 114° Southeast 433 498 23,000  Level FlightAware
07:05PM 41.0830 -75.0150 114° Southeast 412 474 23,000  Level FlightAware
07:06PM 41.0570 -74.9380 114° Southeast 373 429 23,000  Level FlightAware
07:07PM 41.0330 -74.8620 113° Southeast 350 403 23,000  Level FlightAware
07:07PM 41.0270 -74.8270 103° East 350 403 23,000 -480 Level FlightAware
07:07PM 41.0270 -74.8020 90° East 356 410 22,800 -1,200 Descending FlightAware
07:07PM 41.0310 -74.7730 80° East 360 414 22,500 -1,260 Descending FlightAware
07:08PM 41.0540 -74.7050 66° East 354 407 21,800 -1,380 Descending FlightAware
07:08PM 41.0770 -74.6410 64° Northeast 347 399 21,000 -720 Descending FlightAware
07:09PM 41.1010 -74.5720 65° Northeast 343 395 21,000  Level FlightAware
07:10PM 41.1240 -74.5100 64° Northeast 344 396 21,000  Level FlightAware
07:10PM 41.1340 -74.4750 69° East 342 394 21,000  Level FlightAware
07:10PM 41.1370 -74.4520 80° East 338 389 21,000  Level FlightAware
07:10PM 41.1340 -74.4180 97° East 333 383 21,000  Level FlightAware
07:11PM 41.1280 -74.3960 110° East 333 383 21,000  Level FlightAware
07:11PM 41.1225 -74.3850 124° Southeast 332 382 21,000  Level FlightAware ADS-B (KSNC)
07:11PM 41.0760 -74.3440 146° Southeast 332 382 21,000  Level FlightAware
07:11PM 41.0630 -74.3410 170° South 333 383 21,000  Level FlightAware
07:12PM 41.0470 -74.3410 180° South 334 384 21,000 -240 Level FlightAware
07:12PM 41.0260 -74.3490 196° South 336 387 20,900 -540 Descending FlightAware
07:12PM 41.0120 -74.3590 208° Southwest 337 388 20,800 -960 Descending FlightAware
07:12PM 40.9970 -74.3740 217° Southwest 340 391 20,600 -1,320 Descending FlightAware
07:13PM 40.9630 -74.4140 222° Southwest 332 382 19,900 -1,500 Descending FlightAware
07:13PM 40.9411 -74.4239 199° South 325 374 19,500 -1,440 Descending FlightAware ADS-B
07:13PM 40.9241 -74.4253 184° South 318 366 19,300 -1,320 Descending FlightAware ADS-B
07:13PM 40.9134 -74.4231 171° South 315 362 19,100 -1,200 Descending FlightAware ADS-B
07:13PM 40.9090 -74.4216 166° South 314 361 19,100 -300 Level FlightAware ADS-B
07:14PM 40.8869 -74.4062 152° Southeast 318 366 19,000 -120 Descending FlightAware ADS-B
07:14PM 40.8560 -74.3200 115° Southeast 325 374 19,000  Level FlightAware
07:15PM 40.8420 -74.2460 104° East 329 379 19,000 -300 Level FlightAware
07:16PM 40.8300 -74.1840 104° East 322 371 18,700 -720 Descending FlightAware
07:16PM 40.8288 -74.1764 102° East 322 371 18,600 -1,800 Descending FlightAware ADS-B (KSNC)
07:16PM 40.8160 -74.1130 105° East 324 373 17,600 -1,800 Descending FlightAware
07:16PM 40.8105 -74.0861 105° East 325 374 17,200 -1,620 Descending FlightAware ADS-B
07:17PM 40.7975 -74.0272 106° East 321 369 16,400 -1,560 Descending FlightAware ADS-B
07:17PM 40.7944 -74.0135 107° East 318 366 16,200 -1,500 Descending FlightAware ADS-B (KSNC)
07:18PM 40.7730 -73.9150 106° East 311 358 14,900 -1,560 Descending FlightAware
07:18PM 40.7653 -73.8777 105° East 310 357 14,300 -1,740 Descending FlightAware ADS-B (KSNC)
07:19PM 40.7523 -73.8199 107° East 310 357 13,400 -1,560 Descending FlightAware ADS-B (KSNC)
07:20PM 40.7338 -73.7439 108° East 304 350 12,400 -1,320 Descending FlightAware ADS-B (KSNC)
07:20PM 40.7160 -73.6710 108° East 299 344 11,600 -720 Descending FlightAware
07:21PM 40.7044 -73.6252 108° East 300 345 11,600  Level FlightAware ADS-B (KSNC)
07:21PM 40.6850 -73.5510 109° East 260 299 11,600 -240 Level FlightAware
07:22PM 40.6760 -73.5390 135° Southeast 254 292 11,400 -1,200 Descending FlightAware
07:22PM 40.6680 -73.5320 146° Southeast 252 290 11,200 -1,620 Descending FlightAware
07:22PM 40.6480 -73.5250 165° South 253 291 10,700 -2,100 Descending FlightAware
07:23PM 40.6210 -73.5160 166° South 258 297 9,800 -2,160 Descending FlightAware
07:23PM 40.6060 -73.5110 166° South 257 296 9,400 -1,860 Descending FlightAware
07:23PM 40.5930 -73.5080 170° South 256 295 9,100 -1,800 Descending FlightAware
07:23PM 40.5710 -73.5140 192° South 251 289 8,500 -1,740 Descending FlightAware
07:24PM 40.5420 -73.5270 199° South 250 288 7,700 -1,620 Descending FlightAware
07:24PM 40.5190 -73.5320 189° South 246 283 7,200 -1,380 Descending FlightAware
07:24PM 40.4950 -73.5360 187° South 248 285 6,800 -1,080 Descending FlightAware
07:25PM 40.4790 -73.5430 198° South 244 281 6,600 -360 Descending FlightAware
07:25PM 40.4590 -73.5560 206° Southwest 225 259 6,600 -180 Level FlightAware
07:25PM 40.4410 -73.5680 207° Southwest 218 251 6,500 -720 Descending FlightAware
07:26PM 40.4210 -73.5810 206° Southwest 217 250 6,100 -960 Descending FlightAware
07:26PM 40.4030 -73.5940 209° Southwest 216 249 5,800 -900 Descending FlightAware
07:26PM 40.3840 -73.6060 206° Southwest 215 247 5,500 -1,080 Descending FlightAware
07:27PM 40.3660 -73.6190 209° Southwest 214 246 5,100 -900 Descending FlightAware
07:27PM 40.3570 -73.6250 207° Southwest 213 245 5,000 -900 Descending FlightAware
07:27PM 40.3360 -73.6400 209° Southwest 213 245 4,600 -1,320 Descending FlightAware
07:28PM 40.3220 -73.6500 209° Southwest 212 244 4,300 -960 Descending FlightAware
07:28PM 40.3020 -73.6640 208° Southwest 210 242 4,000 -780 Descending FlightAware
07:28PM 40.2970 -73.6700 222° Southwest 211 243 3,900 -780 Descending FlightAware
07:28PM 40.2930 -73.6780 237° Southwest 209 241 3,800 -900 Descending FlightAware
07:28PM 40.2880 -73.6930 246° West 206 237 3,600 -1,260 Descending FlightAware
07:29PM 40.2800 -73.7160 245° Southwest 208 239 3,200 -1,140 Descending FlightAware
07:29PM 40.2740 -73.7370 249° West 210 242 2,900 -1,080 Descending FlightAware
07:29PM 40.2700 -73.7500 248° West 210 242 2,700 -480 Descending FlightAware
07:30PM 40.2710 -73.7840 272° West 213 245 2,600 -180 Descending FlightAware
07:30PM 40.2730 -73.8020 278° West 211 243 2,600  Level FlightAware
07:30PM 40.2760 -73.8290 278° West 210 242 2,600  Level FlightAware
07:30PM 40.2770 -73.8480 274° West 210 242 2,600  Level FlightAware
07:31PM 40.2790 -73.8730 276° West 211 243 2,600  Level FlightAware
07:31PM 40.2840 -73.8900 291° West 210 242 2,600  Level FlightAware
07:31PM 40.2890 -73.9000 303° West 207 238 2,600  Level FlightAware
07:32PM 40.3000 -73.9220 303° West 207 238 2,600  Level FlightAware
07:32PM 40.3060 -73.9330 306° West 206 237 2,600  Level FlightAware
07:32PM 40.3180 -73.9570 303° West 196 226 2,600  Level FlightAware
07:32PM 40.3250 -73.9710 303° West 196 226 2,600  Level FlightAware
07:33PM 40.3350 -73.9900 305° West 197 227 2,600  Level FlightAware
07:33PM 40.3470 -74.0140 303° West 197 227 2,600  Level FlightAware
07:33PM 40.3550 -74.0230 319° Northwest 191 220 2,600  Level FlightAware
07:34PM 40.3680 -74.0320 332° Northwest 188 216 2,600  Level FlightAware
07:34PM 40.3840 -74.0370 347° North 186 214 2,600  Level FlightAware
07:34PM 40.4010 -74.0430 345° North 184 212 2,600  Level FlightAware
07:34PM 40.4070 -74.0440 353° North 181 208 2,600  Level FlightAware
07:35PM 40.4290 -74.0400 North 177 204 2,600  Level FlightAware
07:35PM 40.4440 -74.0320 22° Northeast 173 199 2,600  Level FlightAware
07:35PM 40.4570 -74.0240 25° Northeast 173 199 2,600  Level FlightAware
07:36PM 40.4800 -74.0080 28° Northeast 171 197 2,600  Level FlightAware
07:36PM 40.4920 -73.9990 30° Northeast 168 193 2,600  Level FlightAware
07:37PM 40.5030 -73.9910 29° Northeast 170 196 2,600  Level FlightAware
07:37PM 40.5190 -73.9790 30° Northeast 168 193 2,600  Level FlightAware
07:37PM 40.5330 -73.9680 31° Northeast 168 193 2,600  Level FlightAware
07:38PM 40.5483 -73.9557 31° Northeast 168 193 2,600 -300 Level FlightAware ADS-B
07:38PM 40.5740 -73.9350 31° Northeast 166 191 2,300 -540 Descending FlightAware
07:38PM 40.5807 -73.9294 32° Northeast 169 194 2,200 -660 Descending FlightAware ADS-B
07:39PM 40.6030 -73.9100 33° Northeast 162 186 1,800 -660 Descending FlightAware
07:39PM 40.6160 -73.8990 33° Northeast 160 184 1,600 -540 Descending FlightAware
07:40PM 40.6258 -73.8912 31° Northeast 151 174 1,500 -600 Descending FlightAware ADS-B
07:40PM 40.6500 -73.8710 32° Northeast 123 142 1,000 -660 Descending FlightAware
07:41PM 40.6590 -73.8640 31° Northeast 123 142 800 -660 Descending FlightAware
07:41PM 40.6690 -73.8560 31° Northeast 122 140 600 -540 Descending FlightAware
07:41PM 40.6770 -73.8500 30° Northeast 123 142 500 -540 Descending FlightAware
07:42PM 40.6860 -73.8410 37° Northeast 125 144 300 -420 Descending FlightAware
07:42PM 40.6920 -73.8350 37° Northeast 121 139 300 300 Level FlightAware
07:42PM 40.6950 -73.8310 45° Northeast 118 136 400  Climbing FlightAware
07:42PM 40.6960 -73.8260 75° East 119 137 300 -420 Descending FlightAware
07:42PM 40.6970 -73.8210 75° East 122 140 300 -240 Level FlightAware
07:43PM 40.6980 -73.8050 85° East 128 147 200 -420 Descending FlightAware
07:43PM 40.6970 -73.7950 98° East 129 148 100 -600 Descending FlightAware
07:43PM 40.6960 -73.7880 101° East 129 148 -600 Descending FlightAware
07:43PM 40.6900 -73.7760 123° Southeast 126 145  Level FlightAware
07:44PM 40.6800 -73.7540 121° Southeast 80 92  Level FlightAware